createdAt,value
2022-09-05T00:02:35.486Z,16.50
2022-09-05T00:06:02.030Z,16.37
2022-09-05T00:09:00.329Z,16.90
2022-09-05T00:11:56.075Z,17.07
2022-09-05T00:15:16.972Z,17.80
2022-09-05T00:23:13.504Z,17.80
2022-09-05T00:24:27.354Z,17.30
2022-09-05T00:25:30.388Z,17.67
2022-09-05T00:28:30.034Z,17.90
2022-09-05T00:31:53.814Z,17.63
2022-09-05T00:35:04.163Z,18.23
2022-09-05T00:37:53.841Z,17.80
2022-09-05T00:40:46.414Z,17.83
2022-09-05T00:43:40.461Z,18.47
2022-09-05T00:46:33.819Z,17.97
2022-09-05T00:49:28.893Z,18.13
2022-09-05T00:52:21.511Z,18.90
2022-09-05T00:55:21.595Z,18.50
2022-09-05T00:58:34.193Z,19.00
2022-09-05T01:01:33.763Z,18.77
2022-09-05T01:04:33.649Z,18.90
2022-09-05T01:07:46.496Z,19.23
2022-09-05T01:10:41.155Z,19.23
2022-09-05T01:13:41.059Z,18.20
2022-09-05T01:16:38.326Z,19.03
2022-09-05T01:19:39.575Z,19.23
2022-09-05T01:22:55.572Z,19.23
2022-09-05T01:26:03.086Z,19.97
2022-09-05T01:29:15.982Z,19.60
2022-09-05T01:32:19.643Z,19.90
2022-09-05T01:35:41.579Z,19.97
2022-09-05T01:40:11.155Z,20.40
2022-09-05T01:42:09.483Z,20.60
2022-09-05T01:45:04.253Z,21.03
2022-09-05T01:48:02.407Z,21.17
2022-09-05T01:50:58.771Z,22.23
2022-09-05T01:53:57.174Z,21.07
2022-09-05T01:56:55.305Z,22.57
2022-09-05T01:59:50.743Z,21.83
2022-09-05T02:02:53.051Z,22.20
2022-09-05T02:06:03.689Z,22.63
2022-09-05T02:09:17.963Z,22.53
2022-09-05T02:12:22.174Z,22.30
2022-09-05T02:15:17.678Z,22.83
2022-09-05T02:18:15.628Z,22.80
2022-09-05T02:21:11.649Z,22.10
2022-09-05T02:24:13.108Z,21.80
2022-09-05T02:27:53.565Z,22.23
2022-09-05T02:30:25.257Z,21.97
2022-09-05T02:33:22.422Z,22.57
2022-09-05T02:36:15.352Z,21.67
2022-09-05T02:45:03.869Z,22.37
2022-09-05T02:45:18.445Z,21.43
2022-09-05T02:45:45.945Z,22.17
2022-09-05T02:48:52.964Z,22.93
2022-09-05T02:57:24.513Z,22.33
2022-09-05T02:57:43.270Z,22.57
2022-09-05T02:58:42.764Z,23.03
2022-09-05T03:01:56.982Z,22.70
2022-09-05T03:04:51.917Z,22.97
2022-09-05T03:08:09.699Z,22.97
2022-09-05T03:11:38.187Z,23.57
2022-09-05T03:14:58.008Z,23.50
2022-09-05T03:18:43.144Z,23.83
2022-09-05T03:22:10.055Z,23.30
2022-09-05T03:25:22.144Z,24.37
2022-09-05T03:28:51.996Z,24.77
2022-09-05T03:32:06.126Z,25.27
2022-09-05T03:35:26.519Z,23.87
2022-09-05T03:38:47.235Z,23.93
2022-09-05T03:41:49.385Z,25.03
2022-09-05T03:44:50.446Z,25.40
2022-09-05T03:48:06.322Z,24.77
2022-09-05T03:57:07.070Z,25.20
2022-09-05T03:57:13.118Z,27.07
2022-09-05T03:58:59.321Z,27.20
2022-09-05T04:04:30.427Z,28.40
2022-09-05T04:08:23.677Z,28.43
2022-09-05T04:08:38.780Z,28.43
2022-09-05T04:11:39.998Z,29.50
2022-09-05T04:14:34.278Z,30.63
2022-09-05T04:17:33.720Z,30.60
2022-09-05T04:20:40.918Z,30.47
2022-09-05T04:23:35.379Z,30.67
2022-09-05T04:26:41.665Z,31.77
2022-09-05T04:29:43.235Z,32.70
2022-09-05T04:32:54.815Z,30.93
2022-09-05T04:35:53.771Z,31.10
2022-09-05T04:38:43.920Z,30.63
2022-09-05T04:41:39.522Z,31.87
2022-09-05T04:44:32.541Z,31.00
2022-09-05T04:47:26.727Z,31.53
2022-09-05T04:50:23.419Z,31.80
2022-09-05T04:53:28.123Z,31.60
2022-09-05T04:56:20.739Z,29.93
2022-09-05T05:01:06.876Z,29.67
2022-09-05T05:06:00.969Z,30.30
2022-09-05T05:06:11.029Z,29.73
2022-09-05T05:09:13.399Z,30.17
2022-09-05T05:18:00.788Z,30.70
2022-09-05T05:18:14.833Z,30.20
2022-09-05T05:18:48.292Z,30.43
2022-09-05T05:21:48.837Z,31.00
2022-09-05T05:24:45.672Z,29.90
2022-09-05T05:27:42.576Z,30.13
2022-09-05T05:30:34.040Z,30.07
2022-09-05T05:33:28.710Z,30.73
2022-09-05T05:36:23.482Z,29.23
2022-09-05T05:39:16.266Z,29.67
2022-09-05T05:42:21.236Z,27.83
2022-09-05T05:45:18.986Z,28.17
2022-09-05T05:48:26.172Z,28.43
2022-09-05T05:51:38.393Z,27.97
2022-09-05T05:54:46.935Z,27.50
2022-09-05T05:58:04.750Z,27.70
2022-09-05T06:01:27.394Z,27.47
2022-09-05T06:05:17.314Z,27.40
2022-09-05T06:12:11.663Z,27.43
2022-09-05T06:14:51.045Z,27.57
2022-09-05T06:15:31.603Z,28.03
2022-09-05T06:18:45.659Z,26.20
2022-09-05T06:22:22.083Z,26.50
2022-09-05T06:25:44.846Z,24.30
2022-09-05T06:28:44.445Z,25.67
2022-09-05T06:31:46.913Z,23.60
2022-09-05T06:35:00.151Z,22.80
2022-09-05T06:38:03.564Z,22.03
2022-09-05T06:41:06.370Z,21.25
2022-09-05T06:44:35.229Z,20.60
2022-09-05T06:47:33.584Z,19.60
2022-09-05T06:50:27.169Z,19.00
2022-09-05T06:53:50.902Z,19.13
2022-09-05T06:56:54.451Z,18.35
2022-09-05T07:00:04.758Z,17.10
2022-09-05T07:03:13.607Z,16.50
2022-09-05T07:06:08.730Z,16.67
2022-09-05T07:09:28.722Z,16.13
2022-09-05T07:12:23.107Z,17.40
2022-09-05T07:15:17.033Z,21.52
2022-09-05T07:18:13.232Z,16.15
2022-09-05T07:21:17.259Z,15.23
2022-09-05T07:24:12.253Z,15.70
2022-09-05T07:27:01.929Z,15.45
2022-09-05T07:30:01.663Z,15.18
2022-09-05T07:32:53.811Z,15.30
2022-09-05T07:35:44.219Z,18.52
2022-09-05T07:38:52.294Z,14.32
2022-09-05T07:41:51.226Z,13.52
2022-09-05T07:44:46.492Z,13.20
2022-09-05T07:47:40.545Z,14.70
2022-09-05T07:51:47.183Z,12.65
2022-09-05T07:57:08.251Z,12.02
2022-09-05T08:00:08.976Z,12.25
2022-09-05T08:03:17.175Z,11.20
2022-09-05T08:06:10.259Z,11.23
2022-09-05T08:10:00.894Z,11.65
2022-09-05T08:12:28.141Z,11.88
2022-09-05T08:15:22.838Z,11.32
2022-09-05T08:18:17.309Z,11.02
2022-09-05T08:21:11.368Z,10.15
2022-09-05T08:24:13.392Z,12.10
2022-09-05T08:27:16.035Z,10.20
2022-09-05T08:30:26.920Z,9.65
2022-09-05T08:33:22.289Z,9.07
2022-09-05T08:36:24.720Z,8.15
2022-09-05T08:39:17.802Z,8.00
2022-09-05T08:42:17.771Z,9.93
2022-09-05T08:46:40.347Z,7.88
2022-09-05T08:48:40.071Z,8.20
2022-09-05T08:51:41.823Z,8.05
2022-09-05T08:55:04.283Z,7.80
2022-09-05T08:58:20.339Z,8.75
2022-09-05T09:01:19.497Z,9.70
2022-09-05T09:04:40.000Z,7.68
2022-09-05T09:07:50.928Z,9.25
2022-09-05T09:10:50.151Z,7.80
2022-09-05T09:13:53.314Z,8.15
2022-09-05T09:16:58.206Z,7.32
2022-09-05T09:19:52.829Z,6.85
2022-09-05T09:22:52.616Z,9.38
2022-09-05T09:25:46.259Z,6.82
2022-09-05T09:28:51.935Z,7.25
2022-09-05T09:31:50.303Z,6.40
2022-09-05T09:34:52.822Z,7.00
2022-09-05T09:38:07.998Z,6.18
2022-09-05T09:41:30.793Z,6.40
2022-09-05T09:44:54.165Z,6.30
2022-09-05T09:47:58.486Z,6.30
2022-09-05T09:51:04.225Z,6.68
2022-09-05T09:54:11.574Z,6.47
2022-09-05T09:57:22.896Z,5.85
2022-09-05T10:00:18.175Z,14.50
2022-09-05T10:05:53.657Z,6.82
2022-09-05T10:10:54.669Z,10.20
2022-09-05T10:11:22.685Z,9.30
2022-09-05T10:14:49.622Z,6.38
2022-09-05T10:18:03.513Z,9.52
2022-09-05T10:21:16.598Z,10.45
2022-09-05T10:24:32.471Z,10.43
2022-09-05T10:27:38.568Z,6.90
2022-09-05T10:32:23.207Z,8.05
2022-09-05T10:35:08.991Z,6.18
2022-09-05T10:37:20.038Z,11.40
2022-09-05T10:40:12.911Z,7.68
2022-09-05T10:43:13.492Z,7.07
2022-09-05T10:46:16.964Z,5.60
2022-09-05T10:49:16.409Z,4.82
2022-09-05T10:52:19.330Z,5.70
2022-09-05T10:55:18.734Z,5.53
2022-09-05T10:58:25.208Z,5.18
2022-09-05T11:02:26.703Z,5.60
2022-09-05T11:04:51.584Z,4.95
2022-09-05T11:07:44.845Z,5.00
2022-09-05T11:10:37.459Z,7.57
2022-09-05T11:13:45.982Z,7.70
2022-09-05T11:16:43.764Z,5.18
2022-09-05T11:19:40.995Z,5.82
2022-09-05T11:22:35.989Z,4.90
2022-09-05T11:25:40.511Z,4.97
2022-09-05T11:28:57.505Z,5.28
2022-09-05T11:33:17.354Z,4.32
2022-09-05T11:39:47.883Z,4.28
2022-09-05T11:40:09.003Z,5.30
2022-09-05T11:42:44.023Z,5.05
2022-09-05T11:46:01.537Z,5.13
2022-09-05T11:49:19.698Z,5.20
2022-09-05T11:52:44.038Z,4.93
2022-09-05T11:55:56.466Z,6.00
2022-09-05T11:59:32.957Z,6.13
2022-09-05T12:02:38.817Z,5.20
2022-09-05T12:06:01.817Z,6.05
2022-09-05T12:08:56.569Z,4.88
2022-09-05T12:12:06.295Z,5.72
2022-09-05T12:15:26.543Z,6.13
2022-09-05T12:18:25.774Z,5.32
2022-09-05T12:21:29.282Z,4.57
2022-09-05T12:25:26.166Z,4.78
2022-09-05T12:27:46.355Z,5.57
2022-09-05T12:36:11.386Z,5.72
2022-09-05T12:40:55.890Z,6.32
2022-09-05T12:40:59.581Z,6.97
2022-09-05T12:41:41.972Z,5.82
2022-09-05T12:44:06.050Z,6.32
2022-09-05T12:46:48.110Z,8.60
2022-09-05T12:49:47.291Z,5.88
2022-09-05T12:52:44.804Z,6.15
2022-09-05T12:55:38.834Z,6.07
2022-09-05T13:02:57.794Z,5.82
2022-09-05T13:03:06.200Z,5.75
2022-09-05T13:05:01.916Z,6.95
2022-09-05T13:07:56.274Z,4.90
2022-09-05T13:13:36.933Z,5.70
2022-09-05T13:14:48.634Z,5.32
2022-09-05T13:17:10.481Z,7.45
2022-09-05T13:20:00.451Z,6.05
2022-09-05T13:22:51.219Z,4.90
2022-09-05T13:25:45.722Z,6.05
2022-09-05T13:28:47.469Z,4.90
2022-09-05T13:38:08.281Z,5.55
2022-09-05T13:38:12.950Z,4.82
2022-09-05T13:38:48.681Z,4.82
2022-09-05T13:41:45.200Z,5.68
2022-09-05T13:44:40.833Z,5.20
2022-09-05T13:47:58.480Z,5.28
2022-09-05T13:50:52.928Z,5.07
2022-09-05T13:53:52.146Z,4.72
2022-09-05T13:56:48.227Z,5.45
2022-09-05T13:59:43.071Z,8.90
2022-09-05T14:06:08.620Z,5.45
2022-09-05T14:09:47.709Z,5.05
2022-09-05T14:12:42.235Z,5.40
2022-09-05T14:15:40.078Z,9.00
2022-09-05T14:18:34.074Z,10.30
2022-09-05T14:21:28.655Z,6.07
2022-09-05T14:24:27.447Z,6.18
2022-09-05T14:27:30.390Z,10.63
2022-09-05T14:34:41.915Z,5.97
2022-09-05T14:37:43.663Z,4.93
2022-09-05T14:38:01.472Z,7.95
2022-09-05T14:41:09.253Z,4.63
2022-09-05T14:44:14.069Z,5.10
2022-09-05T14:47:36.429Z,4.55
2022-09-05T14:50:59.661Z,5.20
2022-09-05T14:53:59.972Z,5.47
2022-09-05T14:59:51.118Z,5.15
2022-09-05T15:02:51.199Z,7.22
2022-09-05T15:03:13.337Z,5.10
2022-09-05T15:06:20.001Z,21.30
2022-09-05T15:11:25.848Z,12.40
2022-09-05T15:12:39.788Z,5.93
2022-09-05T15:15:38.367Z,8.93
2022-09-05T15:18:29.955Z,22.75
2022-09-05T15:21:30.740Z,16.42
2022-09-05T15:24:29.536Z,8.95
2022-09-05T15:27:19.094Z,17.27
2022-09-05T15:30:08.785Z,16.38
2022-09-05T15:33:14.395Z,4.80
2022-09-05T15:36:05.740Z,7.93
2022-09-05T15:38:55.866Z,6.28
2022-09-05T15:41:46.510Z,6.13
2022-09-05T15:44:53.177Z,8.00
2022-09-05T15:47:47.480Z,6.57
2022-09-05T15:50:42.283Z,7.32
2022-09-05T15:53:34.596Z,8.13
2022-09-05T15:56:25.165Z,6.53
2022-09-05T15:59:15.884Z,6.55
2022-09-05T16:02:08.344Z,8.20
2022-09-05T16:08:39.755Z,6.15
2022-09-05T16:10:45.941Z,7.70
2022-09-05T16:12:06.872Z,17.45
2022-09-05T16:15:08.785Z,12.45
2022-09-05T16:23:14.179Z,6.78
2022-09-05T16:23:34.075Z,6.85
2022-09-05T16:24:57.864Z,6.38
2022-09-05T16:27:52.653Z,19.13
2022-09-05T16:30:42.288Z,31.25
2022-09-05T16:33:34.603Z,19.92
2022-09-05T16:36:29.536Z,7.90
2022-09-05T16:39:21.986Z,5.97
2022-09-05T16:42:18.468Z,10.07
2022-09-05T16:45:14.206Z,18.15
2022-09-05T16:48:17.744Z,24.30
2022-09-05T16:51:15.986Z,17.13
2022-09-05T16:54:12.311Z,32.03
2022-09-05T16:57:04.387Z,26.58
2022-09-05T16:59:52.799Z,18.95
2022-09-05T17:02:44.794Z,17.77
2022-09-05T17:05:46.083Z,25.65
2022-09-05T17:08:36.857Z,16.77
2022-09-05T17:11:29.822Z,13.15
2022-09-05T17:14:22.846Z,9.25
2022-09-05T17:17:35.979Z,11.43
2022-09-05T17:20:27.604Z,9.20
2022-09-05T17:29:16.527Z,7.22
2022-09-05T17:29:29.471Z,12.20
2022-09-05T17:33:17.402Z,12.32
2022-09-05T17:36:18.577Z,8.27
2022-09-05T17:39:36.009Z,11.55
2022-09-05T17:42:46.663Z,7.10
2022-09-05T17:45:45.318Z,7.97
2022-09-05T17:49:17.888Z,7.45
2022-09-05T17:52:20.321Z,12.13
2022-09-05T17:55:15.252Z,11.73
2022-09-05T17:58:22.261Z,7.88
2022-09-05T18:01:21.299Z,8.68
2022-09-05T18:04:46.999Z,8.57
2022-09-05T18:07:58.054Z,8.80
2022-09-05T18:11:02.279Z,9.25
2022-09-05T18:14:04.463Z,10.57
2022-09-05T18:17:37.456Z,9.13
2022-09-05T18:20:11.859Z,9.43
2022-09-05T18:23:37.086Z,13.10
2022-09-05T18:26:21.469Z,8.65
2022-09-05T18:29:37.167Z,9.95
2022-09-05T18:32:43.827Z,9.02
2022-09-05T18:35:38.290Z,9.45
2022-09-05T18:38:51.453Z,9.63
2022-09-05T18:41:38.753Z,14.40
2022-09-05T18:44:30.615Z,9.68
2022-09-05T18:47:32.977Z,12.35
2022-09-05T18:50:28.195Z,9.45
2022-09-05T18:53:25.248Z,9.30
2022-09-05T18:56:22.165Z,10.75
2022-09-05T18:59:23.887Z,9.57
2022-09-05T19:02:24.990Z,8.85
2022-09-05T19:05:40.759Z,7.75
2022-09-05T19:08:35.196Z,7.18
2022-09-05T19:11:28.942Z,7.13
2022-09-05T19:14:28.905Z,7.45
2022-09-05T19:17:23.700Z,7.43
2022-09-05T19:20:30.878Z,6.90
2022-09-05T19:23:25.612Z,6.70
2022-09-05T19:26:15.659Z,6.45
2022-09-05T19:35:15.498Z,6.53
2022-09-05T19:36:57.052Z,15.35
2022-09-05T19:37:09.436Z,6.20
2022-09-05T19:42:42.094Z,6.63
2022-09-05T19:47:36.098Z,7.90
2022-09-05T19:47:55.935Z,6.60
2022-09-05T19:51:19.237Z,6.03
2022-09-05T19:54:24.983Z,6.55
2022-09-05T19:57:19.542Z,6.33
2022-09-05T20:00:09.480Z,6.75
2022-09-05T20:03:01.929Z,6.40
2022-09-05T20:05:51.541Z,6.10
2022-09-05T20:08:39.810Z,5.60
2022-09-05T20:11:37.353Z,5.70
2022-09-05T20:14:37.459Z,5.67
2022-09-05T20:17:28.609Z,5.30
2022-09-05T20:20:22.347Z,6.90
2022-09-05T20:23:10.773Z,5.20
2022-09-05T20:26:02.316Z,4.53
2022-09-05T20:28:57.485Z,4.63
2022-09-05T20:31:47.266Z,5.23
2022-09-05T20:37:51.612Z,6.05
2022-09-05T20:43:18.145Z,6.10
2022-09-05T20:43:19.461Z,5.43
2022-09-05T20:44:24.901Z,4.87
2022-09-05T20:48:23.999Z,5.87
2022-09-05T20:54:10.148Z,5.00
2022-09-05T20:54:28.446Z,4.40
2022-09-05T20:56:56.275Z,4.93
2022-09-05T20:59:47.414Z,4.53
2022-09-05T21:02:37.196Z,5.00
2022-09-05T21:05:28.653Z,4.30
2022-09-05T21:08:32.614Z,6.43
2022-09-05T21:11:30.706Z,4.97
2022-09-05T21:14:20.216Z,5.57
2022-09-05T21:17:15.606Z,4.50
2022-09-05T21:20:09.422Z,4.30
2022-09-05T21:22:57.806Z,4.70
2022-09-05T21:25:52.082Z,4.93
2022-09-05T21:28:44.336Z,4.43
2022-09-05T21:31:42.637Z,5.00
2022-09-05T21:34:34.385Z,4.00
2022-09-05T21:37:24.017Z,7.17
2022-09-05T21:40:13.641Z,5.00
2022-09-05T21:47:35.192Z,4.63
2022-09-05T21:47:42.055Z,5.57
2022-09-05T21:49:21.274Z,4.60
2022-09-05T21:52:09.666Z,6.37
2022-09-05T21:59:25.433Z,4.60
2022-09-05T21:59:27.323Z,6.07
2022-09-05T22:01:52.099Z,4.60
2022-09-05T22:04:33.760Z,5.10
2022-09-05T22:07:32.816Z,5.17
2022-09-05T22:10:23.294Z,4.60
2022-09-05T22:13:31.571Z,5.07
2022-09-05T22:16:19.995Z,4.20
2022-09-05T22:19:08.329Z,4.50
2022-09-05T22:21:58.862Z,4.80
2022-09-05T22:24:51.951Z,4.57
2022-09-05T22:27:45.181Z,5.93
2022-09-05T22:30:35.511Z,6.47
2022-09-05T22:33:25.140Z,4.50
2022-09-05T22:36:13.845Z,4.60
2022-09-05T22:39:02.190Z,5.37
2022-09-05T22:41:50.431Z,5.17
2022-09-05T22:44:41.035Z,4.30
2022-09-05T22:47:30.096Z,4.70
2022-09-05T22:50:18.532Z,4.27
2022-09-05T22:53:08.566Z,4.90
2022-09-05T22:55:59.138Z,4.60
2022-09-05T22:58:47.350Z,4.67
2022-09-05T23:01:37.028Z,4.30
2022-09-05T23:04:25.994Z,4.10
2022-09-05T23:07:14.331Z,5.90
2022-09-05T23:10:04.072Z,4.10
2022-09-05T23:12:52.406Z,4.57
2022-09-05T23:15:40.789Z,4.27
2022-09-05T23:18:31.686Z,5.53
2022-09-05T23:21:20.933Z,4.97
2022-09-05T23:24:09.232Z,4.00
2022-09-05T23:26:57.452Z,4.20
2022-09-05T23:29:45.754Z,4.30
2022-09-05T23:32:34.554Z,5.30
2022-09-05T23:35:24.148Z,4.10
2022-09-05T23:38:12.808Z,4.40
2022-09-05T23:41:02.636Z,3.80
2022-09-05T23:43:50.935Z,4.90
2022-09-05T23:46:40.514Z,6.80
2022-09-05T23:49:28.878Z,4.33
2022-09-05T23:52:18.515Z,4.40
2022-09-05T23:55:08.239Z,4.10
2022-09-05T23:57:58.604Z,3.60
